PWSweather.com
Personal Weather Stations
Station Observations
WATERF01
WaterfordIE

WaterfordIE

Lat: 52.2412507, Lon: -7.1414691

Elevation: 65

Station Type: Davis Vantage Vue

Latest ConditionsUpdated 2:50:02 PM GMT Wednesday, Jun 20, 2018
Currently Today's Max Today's Min Today's Average
Temperature 62.7°F17.1°C 62.7°F17.1°C 57.6°F14.2°C 59.4°F15.2°C
Dew Point 47.7°F8.7°C 56.8°F13.8°C 47.7°F8.7°C 53.6°F12.0°C
Winds 6.9 mph NNW11.1 kmh NNW 13.8 mph -22.2 kmh - - 7.2 mph 11.6 kmh
Wind Gusts 8.1 mph13.0 kmh 21.9 mph35.2 kmh - -
Humidity 58% 89% 58% 82%
Pressure 30.19 in1022.4 mb 30.19 in1022.4 mb 29.99 in1015.6 mb -
Precipitation - 0.03 in0.8 mm - -
Hour Temp Dew Point Humidity Winds Wind Gusts Pressure Precip Precip Rate Daily Precip Total
02:50 PM 62.7°F17.1°C 47.7°F8.7°C 58% 6.9 mph NNW11.1 kmh NNW 8.1 mph13.0 kmh 30.19 in1022.4 mb - 0.00 in0.0 mm 0.03 in0.8 mm
02:40 PM 61.9°F16.6°C 47.9°F8.8°C 60% 6.9 mph NNW11.1 kmh NNW 11.5 mph18.5 kmh 30.19 in1022.4 mb - 0.00 in0.0 mm 0.03 in0.8 mm
02:30 PM 61.7°F16.5°C 48.5°F9.2°C 62% 8.1 mph N13.0 kmh N 18.4 mph29.6 kmh 30.19 in1022.4 mb - 0.00 in0.0 mm 0.03 in0.8 mm
02:20 PM 61.5°F16.4°C 49.2°F9.6°C 64% 9.2 mph NNW14.8 kmh NNW 12.7 mph20.4 kmh 30.19 in1022.4 mb - 0.00 in0.0 mm 0.03 in0.8 mm
02:10 PM 61.7°F16.5°C 49.8°F9.9°C 65% 4.6 mph N7.4 kmh N 9.2 mph14.8 kmh 30.18 in1022.0 mb - 0.00 in0.0 mm 0.03 in0.8 mm
02:00 PM 61.8°F16.6°C 49.5°F9.7°C 64% 6.9 mph N11.1 kmh N 13.8 mph22.2 kmh 30.18 in1022.0 mb - 0.00 in0.0 mm 0.03 in0.8 mm
01:50 PM 61.5°F16.4°C 49.2°F9.6°C 64% 6.9 mph N11.1 kmh N 9.2 mph14.8 kmh 30.18 in1022.0 mb - 0.00 in0.0 mm 0.03 in0.8 mm
01:40 PM 61.4°F16.3°C 48.3°F9.1°C 62% 6.9 mph N11.1 kmh N 13.8 mph22.2 kmh 30.18 in1022.0 mb - 0.00 in0.0 mm 0.03 in0.8 mm
01:30 PM 60.4°F15.8°C 47.8°F8.8°C 63% 5.8 mph NNW9.3 kmh NNW 9.2 mph14.8 kmh 30.18 in1022.0 mb - 0.00 in0.0 mm 0.03 in0.8 mm
01:20 PM 60.0°F15.6°C 49.4°F9.7°C 68% 4.6 mph N7.4 kmh N 11.5 mph18.5 kmh 30.18 in1022.0 mb - 0.00 in0.0 mm 0.03 in0.8 mm
01:10 PM 60.1°F15.6°C 50.3°F10.2°C 70% 4.6 mph NNW7.4 kmh NNW 15.0 mph24.1 kmh 30.18 in1022.0 mb - 0.00 in0.0 mm 0.03 in0.8 mm
01:00 PM 59.6°F15.3°C 50.9°F10.5°C 73% 5.8 mph N9.3 kmh N 11.5 mph18.5 kmh 30.18 in1022.0 mb - 0.00 in0.0 mm 0.03 in0.8 mm
12:50 PM 59.6°F15.3°C 50.2°F10.1°C 71% 4.6 mph N7.4 kmh N 10.4 mph16.7 kmh 30.17 in1021.7 mb - 0.00 in0.0 mm 0.03 in0.8 mm
12:40 PM 59.2°F15.1°C 50.9°F10.5°C 74% 8.1 mph N13.0 kmh N 18.4 mph29.6 kmh 30.17 in1021.7 mb - 0.00 in0.0 mm 0.03 in0.8 mm
12:30 PM 58.7°F14.8°C 50.4°F10.2°C 74% 6.9 mph N11.1 kmh N 12.7 mph20.4 kmh 30.17 in1021.7 mb - 0.00 in0.0 mm 0.03 in0.8 mm
12:20 PM 58.9°F14.9°C 50.3°F10.2°C 73% 6.9 mph NNW11.1 kmh NNW 12.7 mph20.4 kmh 30.16 in1021.3 mb - 0.00 in0.0 mm 0.03 in0.8 mm
12:10 PM 59.0°F15.0°C 50.0°F10.0°C 72% 9.2 mph N14.8 kmh N 18.4 mph29.6 kmh 30.16 in1021.3 mb - 0.00 in0.0 mm 0.03 in0.8 mm
12:00 PM 59.5°F15.3°C 50.5°F10.3°C 72% 9.2 mph NNW14.8 kmh NNW 12.7 mph20.4 kmh 30.16 in1021.3 mb - 0.00 in0.0 mm 0.03 in0.8 mm
11:50 AM 59.4°F15.2°C 50.4°F10.2°C 72% 9.2 mph NNW14.8 kmh NNW 13.8 mph22.2 kmh 30.16 in1021.3 mb - 0.00 in0.0 mm 0.03 in0.8 mm
11:40 AM 58.8°F14.9°C 50.5°F10.3°C 74% 6.9 mph NNW11.1 kmh NNW 15.0 mph24.1 kmh 30.16 in1021.3 mb - 0.00 in0.0 mm 0.03 in0.8 mm
11:30 AM 58.8°F14.9°C 50.5°F10.3°C 74% 2.3 mph WNW3.7 kmh WNW 8.1 mph13.0 kmh 30.16 in1021.3 mb - 0.00 in0.0 mm 0.03 in0.8 mm
11:20 AM 58.8°F14.9°C 50.9°F10.5°C 75% 5.8 mph N9.3 kmh N 8.1 mph13.0 kmh 30.15 in1021.0 mb - 0.00 in0.0 mm 0.03 in0.8 mm
11:10 AM 58.6°F14.8°C 50.7°F10.4°C 75% 6.9 mph N11.1 kmh N 11.5 mph18.5 kmh 30.15 in1021.0 mb - 0.00 in0.0 mm 0.03 in0.8 mm
11:00 AM 59.0°F15.0°C 51.1°F10.6°C 75% 10.4 mph N16.7 kmh N 17.3 mph27.8 kmh 30.14 in1020.7 mb - 0.00 in0.0 mm 0.03 in0.8 mm
10:50 AM 59.6°F15.3°C 51.6°F10.9°C 75% 8.1 mph NNW13.0 kmh NNW 13.8 mph22.2 kmh 30.13 in1020.3 mb - 0.00 in0.0 mm 0.03 in0.8 mm
10:40 AM 59.7°F15.4°C 51.8°F11.0°C 75% 9.2 mph NNW14.8 kmh NNW 16.1 mph25.9 kmh 30.13 in1020.3 mb - 0.00 in0.0 mm 0.03 in0.8 mm
10:30 AM 59.5°F15.3°C 51.2°F10.7°C 74% 10.4 mph NNW16.7 kmh NNW 13.8 mph22.2 kmh 30.13 in1020.3 mb - 0.00 in0.0 mm 0.03 in0.8 mm
10:20 AM 59.5°F15.3°C 52.0°F11.1°C 76% 9.2 mph NNW14.8 kmh NNW 20.7 mph33.3 kmh 30.12 in1020.0 mb - 0.00 in0.0 mm 0.03 in0.8 mm
10:10 AM 59.2°F15.1°C 52.4°F11.3°C 78% 10.4 mph NW16.7 kmh NW 16.1 mph25.9 kmh 30.12 in1020.0 mb - 0.00 in0.0 mm 0.03 in0.8 mm
10:00 AM 58.5°F14.7°C 52.0°F11.1°C 79% 13.8 mph NNW22.2 kmh NNW 21.9 mph35.2 kmh 30.11 in1019.6 mb - 0.00 in0.0 mm 0.03 in0.8 mm
09:50 AM 58.4°F14.7°C 52.6°F11.4°C 81% 9.2 mph NNW14.8 kmh NNW 13.8 mph22.2 kmh 30.11 in1019.6 mb - 0.00 in0.0 mm 0.03 in0.8 mm
09:40 AM 58.8°F14.9°C 53.0°F11.7°C 81% 9.2 mph NNW14.8 kmh NNW 13.8 mph22.2 kmh 30.11 in1019.6 mb - 0.00 in0.0 mm 0.03 in0.8 mm
09:30 AM 59.3°F15.2°C 53.2°F11.8°C 80% 12.7 mph NW20.4 kmh NW 18.4 mph29.6 kmh 30.10 in1019.3 mb - 0.00 in0.0 mm 0.03 in0.8 mm
09:20 AM 58.9°F14.9°C 53.4°F11.9°C 82% 11.5 mph NNW18.5 kmh NNW 18.4 mph29.6 kmh 30.09 in1019.0 mb - 0.00 in0.0 mm 0.03 in0.8 mm
09:10 AM 58.3°F14.6°C 53.1°F11.7°C 83% 8.1 mph NNW13.0 kmh NNW 11.5 mph18.5 kmh 30.10 in1019.3 mb - 0.00 in0.0 mm 0.03 in0.8 mm
09:00 AM 58.0°F14.4°C 53.5°F11.9°C 85% 6.9 mph NNW11.1 kmh NNW 8.1 mph13.0 kmh 30.09 in1019.0 mb - 0.00 in0.0 mm 0.03 in0.8 mm
08:50 AM 58.4°F14.7°C 53.2°F11.8°C 83% 11.5 mph NW18.5 kmh NW 16.1 mph25.9 kmh 30.08 in1018.6 mb - 0.00 in0.0 mm 0.03 in0.8 mm
08:40 AM 60.5°F15.8°C 55.3°F12.9°C 83% 11.5 mph NW18.5 kmh NW 20.7 mph33.3 kmh 30.07 in1018.3 mb - 0.00 in0.0 mm 0.03 in0.8 mm
08:30 AM 60.0°F15.6°C 55.5°F13.1°C 85% 4.6 mph NW7.4 kmh NW 8.1 mph13.0 kmh 30.07 in1018.3 mb - 0.00 in0.0 mm 0.03 in0.8 mm
08:20 AM 60.0°F15.6°C 55.2°F12.9°C 84% 5.8 mph NW9.3 kmh NW 6.9 mph11.1 kmh 30.07 in1018.3 mb - 0.00 in0.0 mm 0.03 in0.8 mm
08:10 AM 61.3°F16.3°C 56.8°F13.8°C 85% 4.6 mph NW7.4 kmh NW 9.2 mph14.8 kmh 30.06 in1017.9 mb - 0.00 in0.0 mm 0.03 in0.8 mm
08:00 AM 60.9°F16.1°C 56.7°F13.7°C 86% 5.8 mph W9.3 kmh W 8.1 mph13.0 kmh 30.05 in1017.6 mb - 0.00 in0.0 mm 0.03 in0.8 mm
07:50 AM 60.7°F15.9°C 56.5°F13.6°C 86% 3.5 mph W5.6 kmh W 8.1 mph13.0 kmh 30.04 in1017.3 mb - 0.00 in0.0 mm 0.03 in0.8 mm
07:40 AM 60.6°F15.9°C 56.4°F13.6°C 86% 5.8 mph WNW9.3 kmh WNW 11.5 mph18.5 kmh 30.04 in1017.3 mb - 0.00 in0.0 mm 0.03 in0.8 mm
07:30 AM 60.4°F15.8°C 56.2°F13.4°C 86% 4.6 mph W7.4 kmh W 6.9 mph11.1 kmh 30.04 in1017.3 mb - 0.00 in0.0 mm 0.03 in0.8 mm
07:20 AM 60.4°F15.8°C 56.2°F13.4°C 86% 4.6 mph W7.4 kmh W 8.1 mph13.0 kmh 30.03 in1016.9 mb - 0.00 in0.0 mm 0.03 in0.8 mm
07:10 AM 60.2°F15.7°C 56.3°F13.5°C 87% 4.6 mph W7.4 kmh W 8.1 mph13.0 kmh 30.04 in1017.3 mb - 0.00 in0.0 mm 0.03 in0.8 mm
07:00 AM 60.0°F15.6°C 56.1°F13.4°C 87% 4.6 mph W7.4 kmh W 11.5 mph18.5 kmh 30.03 in1016.9 mb - 0.00 in0.0 mm 0.03 in0.8 mm
06:50 AM 59.8°F15.4°C 56.2°F13.4°C 88% 6.9 mph W11.1 kmh W 9.2 mph14.8 kmh 30.02 in1016.6 mb - 0.00 in0.0 mm 0.03 in0.8 mm
06:40 AM 59.6°F15.3°C 56.0°F13.3°C 88% 8.1 mph W13.0 kmh W 11.5 mph18.5 kmh 30.02 in1016.6 mb - 0.00 in0.0 mm 0.03 in0.8 mm
06:30 AM 59.3°F15.2°C 55.7°F13.2°C 88% 5.8 mph W9.3 kmh W 8.1 mph13.0 kmh 30.02 in1016.6 mb - 0.00 in0.0 mm 0.03 in0.8 mm
06:20 AM 59.0°F15.0°C 55.4°F13.0°C 88% 8.1 mph W13.0 kmh W 9.2 mph14.8 kmh 30.02 in1016.6 mb - 0.00 in0.0 mm 0.03 in0.8 mm
06:10 AM 59.1°F15.1°C 55.8°F13.2°C 89% 4.6 mph WSW7.4 kmh WSW 12.7 mph20.4 kmh 30.01 in1016.3 mb - 0.00 in0.0 mm 0.03 in0.8 mm
06:00 AM 58.6°F14.8°C 55.4°F13.0°C 89% 5.8 mph W9.3 kmh W 9.2 mph14.8 kmh 30.01 in1016.3 mb - 0.00 in0.0 mm 0.03 in0.8 mm
05:50 AM 58.2°F14.6°C 54.9°F12.7°C 89% 4.6 mph W7.4 kmh W 6.9 mph11.1 kmh 30.01 in1016.3 mb - 0.00 in0.0 mm 0.03 in0.8 mm
05:40 AM 57.8°F14.3°C 54.6°F12.6°C 89% 3.5 mph NNW5.6 kmh NNW 12.7 mph20.4 kmh 30.01 in1016.3 mb - 0.00 in0.0 mm 0.03 in0.8 mm
05:30 AM 57.7°F14.3°C 54.5°F12.5°C 89% 3.5 mph SW5.6 kmh SW 5.8 mph9.3 kmh 30.01 in1016.3 mb - 0.00 in0.0 mm 0.03 in0.8 mm
05:20 AM 57.7°F14.3°C 54.5°F12.5°C 89% 4.6 mph W7.4 kmh W 9.2 mph14.8 kmh 30.01 in1016.3 mb - 0.00 in0.0 mm 0.03 in0.8 mm
05:10 AM 57.7°F14.3°C 54.5°F12.5°C 89% Calm Calm 2.3 mph3.7 kmh 30.00 in1015.9 mb - 0.00 in0.0 mm 0.03 in0.8 mm
05:00 AM 57.7°F14.3°C 54.4°F12.4°C 89% 5.8 mph SW9.3 kmh SW 9.2 mph14.8 kmh 30.00 in1015.9 mb - 0.00 in0.0 mm 0.03 in0.8 mm
04:50 AM 57.6°F14.2°C 54.4°F12.4°C 89% 4.6 mph W7.4 kmh W 13.8 mph22.2 kmh 30.00 in1015.9 mb - 0.00 in0.0 mm 0.03 in0.8 mm
04:40 AM 57.6°F14.2°C 54.4°F12.4°C 89% 5.8 mph WSW9.3 kmh WSW 11.5 mph18.5 kmh 29.99 in1015.6 mb - 0.00 in0.0 mm 0.03 in0.8 mm
04:30 AM 57.6°F14.2°C 54.4°F12.4°C 89% 4.6 mph W7.4 kmh W 9.2 mph14.8 kmh 30.00 in1015.9 mb - 0.00 in0.0 mm 0.03 in0.8 mm
04:20 AM 57.9°F14.4°C 54.7°F12.6°C 89% 6.9 mph WSW11.1 kmh WSW 13.8 mph22.2 kmh 29.99 in1015.6 mb - 0.00 in0.0 mm 0.03 in0.8 mm
04:10 AM 58.2°F14.6°C 55.0°F12.8°C 89% 6.9 mph WSW11.1 kmh WSW 13.8 mph22.2 kmh 29.99 in1015.6 mb - 0.00 in0.0 mm 0.03 in0.8 mm
04:00 AM 58.5°F14.7°C 55.3°F12.9°C 89% 8.1 mph W13.0 kmh W 13.8 mph22.2 kmh 29.99 in1015.6 mb - 0.00 in0.0 mm 0.03 in0.8 mm
03:50 AM 58.6°F14.8°C 55.4°F13.0°C 89% 6.9 mph W11.1 kmh W 15.0 mph24.1 kmh 29.99 in1015.6 mb - 0.00 in0.0 mm 0.03 in0.8 mm
03:40 AM 58.7°F14.8°C 55.5°F13.1°C 89% 9.2 mph NW14.8 kmh NW 15.0 mph24.1 kmh 29.99 in1015.6 mb - 0.00 in0.0 mm 0.03 in0.8 mm
03:30 AM 58.8°F14.9°C 55.6°F13.1°C 89% 9.2 mph W14.8 kmh W 16.1 mph25.9 kmh 29.99 in1015.6 mb - 0.01 in0.3 mm 0.03 in0.8 mm
03:20 AM 58.9°F14.9°C 55.7°F13.2°C 89% 10.4 mph WNW16.7 kmh WNW 13.8 mph22.2 kmh 29.99 in1015.6 mb - 0.01 in0.3 mm 0.03 in0.8 mm
03:10 AM 58.9°F14.9°C 55.7°F13.2°C 89% 8.1 mph W13.0 kmh W 18.4 mph29.6 kmh 30.00 in1015.9 mb - 0.02 in0.5 mm 0.03 in0.8 mm
03:00 AM 59.0°F15.0°C 55.8°F13.2°C 89% 10.4 mph W16.7 kmh W 19.6 mph31.5 kmh 30.00 in1015.9 mb - 0.02 in0.5 mm 0.03 in0.8 mm
02:50 AM 59.1°F15.1°C 55.9°F13.3°C 89% 9.2 mph WSW14.8 kmh WSW 13.8 mph22.2 kmh 29.99 in1015.6 mb - 0.02 in0.5 mm 0.03 in0.8 mm
02:40 AM 59.1°F15.1°C 55.9°F13.3°C 89% 8.1 mph WNW13.0 kmh WNW 18.4 mph29.6 kmh 29.99 in1015.6 mb - 0.02 in0.5 mm 0.03 in0.8 mm
02:30 AM 59.1°F15.1°C 55.9°F13.3°C 89% 8.1 mph WSW13.0 kmh WSW 13.8 mph22.2 kmh 29.99 in1015.6 mb - 0.01 in0.3 mm 0.02 in0.5 mm
02:20 AM 59.2°F15.1°C 56.0°F13.3°C 89% 8.1 mph WNW13.0 kmh WNW 13.8 mph22.2 kmh 30.00 in1015.9 mb - 0.01 in0.3 mm 0.02 in0.5 mm
02:10 AM 59.3°F15.2°C 56.1°F13.4°C 89% 9.2 mph W14.8 kmh W 16.1 mph25.9 kmh 30.00 in1015.9 mb - 0.00 in0.0 mm 0.01 in0.3 mm
02:00 AM 59.3°F15.2°C 56.1°F13.4°C 89% 9.2 mph W14.8 kmh W 16.1 mph25.9 kmh 30.00 in1015.9 mb - 0.00 in0.0 mm 0.01 in0.3 mm
01:50 AM 59.3°F15.2°C 56.1°F13.4°C 89% 9.2 mph WSW14.8 kmh WSW 16.1 mph25.9 kmh 30.00 in1015.9 mb - 0.00 in0.0 mm 0.01 in0.3 mm
01:40 AM 59.3°F15.2°C 56.1°F13.4°C 89% 8.1 mph WSW13.0 kmh WSW 13.8 mph22.2 kmh 30.00 in1015.9 mb - 0.00 in0.0 mm 0.01 in0.3 mm
01:30 AM 59.4°F15.2°C 56.2°F13.4°C 89% 10.4 mph WSW16.7 kmh WSW 16.1 mph25.9 kmh 30.01 in1016.3 mb - 0.00 in0.0 mm 0.01 in0.3 mm
01:20 AM 59.4°F15.2°C 56.2°F13.4°C 89% 10.4 mph WNW16.7 kmh WNW 16.1 mph25.9 kmh 30.01 in1016.3 mb - 0.00 in0.0 mm 0.01 in0.3 mm
01:10 AM 59.4°F15.2°C 56.1°F13.4°C 89% 8.1 mph W13.0 kmh W 18.4 mph29.6 kmh 30.01 in1016.3 mb - 0.00 in0.0 mm 0.01 in0.3 mm
01:00 AM 59.4°F15.2°C 56.2°F13.4°C 89% 4.6 mph W7.4 kmh W 12.7 mph20.4 kmh 30.02 in1016.6 mb - 0.01 in0.3 mm 0.01 in0.3 mm
12:50 AM 59.4°F15.2°C 56.2°F13.4°C 89% 4.6 mph WNW7.4 kmh WNW 11.5 mph18.5 kmh 30.02 in1016.6 mb - 0.01 in0.3 mm 0.01 in0.3 mm
12:40 AM 59.4°F15.2°C 56.2°F13.4°C 89% 5.8 mph WNW9.3 kmh WNW 11.5 mph18.5 kmh 30.03 in1016.9 mb - 0.01 in0.3 mm 0.01 in0.3 mm
12:30 AM 59.3°F15.2°C 56.1°F13.4°C 89% 8.1 mph WSW13.0 kmh WSW 8.1 mph13.0 kmh 30.02 in1016.6 mb - 0.01 in0.3 mm 0.01 in0.3 mm
12:20 AM 59.3°F15.2°C 56.1°F13.4°C 89% 4.6 mph WSW7.4 kmh WSW 8.1 mph13.0 kmh 30.03 in1016.9 mb - 0.01 in0.3 mm 0.01 in0.3 mm
12:10 AM 59.3°F15.2°C 55.7°F13.2°C 88% 8.1 mph W13.0 kmh W 11.5 mph18.5 kmh 30.04 in1017.3 mb - 0.01 in0.3 mm 0.01 in0.3 mm
12:00 AM 59.3°F15.2°C 55.7°F13.2°C 88% 6.9 mph W11.1 kmh W 18.4 mph29.6 kmh 30.04 in1017.3 mb - 0.00 in0.0 mm 0.00 in0.0 mm